createdAt,value
2018-03-15T00:01:07.449Z,6.56
2018-03-15T00:03:34.844Z,6.56
2018-03-15T00:06:02.229Z,6.55
2018-03-15T00:08:29.640Z,6.50
2018-03-15T00:10:57.026Z,6.48
2018-03-15T00:13:24.417Z,6.43
2018-03-15T00:15:51.822Z,6.37
2018-03-15T00:18:19.195Z,6.38
2018-03-15T00:20:46.595Z,6.36
2018-03-15T00:23:13.980Z,6.36
2018-03-15T00:25:41.361Z,6.31
2018-03-15T00:28:08.754Z,6.38
2018-03-15T00:30:36.146Z,6.35
2018-03-15T00:33:03.521Z,6.29
2018-03-15T00:35:30.978Z,6.31
2018-03-15T00:37:58.348Z,6.30
2018-03-15T00:40:25.729Z,6.33
2018-03-15T00:42:53.122Z,6.30
2018-03-15T00:45:20.502Z,6.24
2018-03-15T00:47:47.889Z,6.18
2018-03-15T00:50:15.293Z,6.18
2018-03-15T00:52:42.673Z,6.20
2018-03-15T00:55:10.057Z,6.18
2018-03-15T00:57:37.488Z,6.13
2018-03-15T01:00:05.000Z,6.12
2018-03-15T01:02:32.373Z,6.07
2018-03-15T01:05:02.521Z,6.10
2018-03-15T01:07:29.925Z,6.05
2018-03-15T01:09:57.329Z,6.07
2018-03-15T01:12:24.722Z,6.06
2018-03-15T01:14:52.105Z,6.10
2018-03-15T01:17:19.489Z,6.04
2018-03-15T01:19:46.870Z,6.05
2018-03-15T01:22:14.249Z,6.07
2018-03-15T01:24:41.641Z,6.07
2018-03-15T01:27:09.026Z,6.05
2018-03-15T01:29:36.409Z,6.05
2018-03-15T01:32:03.793Z,6.04
2018-03-15T01:34:31.205Z,6.04
2018-03-15T01:36:58.597Z,5.95
2018-03-15T01:39:25.977Z,5.97
2018-03-15T01:41:53.373Z,5.97
2018-03-15T01:44:20.756Z,5.98
2018-03-15T01:46:48.152Z,5.96
2018-03-15T01:49:15.553Z,5.94
2018-03-15T01:51:42.938Z,5.97
2018-03-15T01:54:10.333Z,6.00
2018-03-15T01:56:37.713Z,5.90
2018-03-15T01:59:05.098Z,5.88
2018-03-15T02:01:32.505Z,5.87
2018-03-15T02:03:59.889Z,5.90
2018-03-15T02:06:27.268Z,5.86
2018-03-15T02:08:54.662Z,5.85
2018-03-15T02:11:22.061Z,5.77
2018-03-15T02:13:49.457Z,5.79
2018-03-15T02:16:16.842Z,5.82
2018-03-15T02:18:44.224Z,5.78
2018-03-15T02:21:11.616Z,5.71
2018-03-15T02:23:39.006Z,5.65
2018-03-15T02:26:06.413Z,5.70
2018-03-15T02:28:33.794Z,5.72
2018-03-15T02:31:01.193Z,5.65
2018-03-15T02:33:28.590Z,5.68
2018-03-15T02:35:55.980Z,5.70
2018-03-15T02:38:23.369Z,5.71
2018-03-15T02:40:50.761Z,5.73
2018-03-15T02:43:18.144Z,5.68
2018-03-15T02:45:45.538Z,5.74
2018-03-15T02:48:12.921Z,5.76
2018-03-15T02:50:40.348Z,5.73
2018-03-15T02:53:07.751Z,5.69
2018-03-15T02:55:35.126Z,5.69
2018-03-15T02:58:02.548Z,5.67
2018-03-15T03:00:29.937Z,5.65
2018-03-15T03:02:57.344Z,5.65
2018-03-15T03:05:24.722Z,5.61
2018-03-15T03:07:52.102Z,5.65
2018-03-15T03:10:19.493Z,5.67
2018-03-15T03:12:46.878Z,5.65
2018-03-15T03:15:14.269Z,5.70
2018-03-15T03:17:41.653Z,5.64
2018-03-15T03:20:09.037Z,5.63
2018-03-15T03:22:36.440Z,5.60
2018-03-15T03:25:03.824Z,5.61
2018-03-15T03:27:31.237Z,5.61
2018-03-15T03:29:58.614Z,5.60
2018-03-15T03:32:25.998Z,5.59
2018-03-15T03:34:53.380Z,5.65
2018-03-15T03:37:20.779Z,5.64
2018-03-15T03:39:48.174Z,5.62
2018-03-15T03:42:15.565Z,5.59
2018-03-15T03:44:42.937Z,5.60
2018-03-15T03:47:10.326Z,5.62
2018-03-15T03:49:37.710Z,5.61
2018-03-15T03:52:05.117Z,5.57
2018-03-15T03:54:32.501Z,5.58
2018-03-15T03:56:59.885Z,5.52
2018-03-15T03:59:27.273Z,5.53
2018-03-15T04:01:54.654Z,5.51
2018-03-15T04:04:22.054Z,5.49
2018-03-15T04:06:49.462Z,5.49
2018-03-15T04:09:16.861Z,5.56
2018-03-15T04:11:44.264Z,5.55
2018-03-15T04:14:11.652Z,5.54
2018-03-15T04:16:39.056Z,5.53
2018-03-15T04:19:06.466Z,5.54
2018-03-15T04:21:33.876Z,5.52
2018-03-15T04:24:01.557Z,5.53
2018-03-15T04:26:28.957Z,5.54
2018-03-15T04:28:56.366Z,5.47
2018-03-15T04:31:23.749Z,5.43
2018-03-15T04:33:51.153Z,5.52
2018-03-15T04:36:18.540Z,5.47
2018-03-15T04:38:45.948Z,5.49
2018-03-15T04:41:13.368Z,5.43
2018-03-15T04:43:40.772Z,5.46
2018-03-15T04:46:08.172Z,5.48
2018-03-15T04:48:35.583Z,5.44
2018-03-15T04:51:02.981Z,5.40
2018-03-15T04:53:30.425Z,5.42
2018-03-15T04:55:57.814Z,5.38
2018-03-15T04:58:25.208Z,5.37
2018-03-15T05:00:52.598Z,5.34
2018-03-15T05:03:20.012Z,5.34
2018-03-15T05:05:47.405Z,5.31
2018-03-15T05:08:14.790Z,5.35
2018-03-15T05:10:42.208Z,5.32
2018-03-15T05:13:09.615Z,5.34
2018-03-15T05:15:37.017Z,5.36
2018-03-15T05:18:04.413Z,5.34
2018-03-15T05:20:31.809Z,5.30
2018-03-15T05:22:59.204Z,5.34
2018-03-15T05:25:26.587Z,5.28
2018-03-15T05:27:53.968Z,5.31
2018-03-15T05:30:21.409Z,5.32
2018-03-15T05:32:48.816Z,5.39
2018-03-15T05:35:16.189Z,5.39
2018-03-15T05:37:45.550Z,5.40
2018-03-15T05:40:12.924Z,5.42
2018-03-15T05:42:40.322Z,5.35
2018-03-15T05:45:07.705Z,5.35
2018-03-15T05:47:35.122Z,5.37
2018-03-15T05:50:02.501Z,5.39
2018-03-15T05:52:29.953Z,5.42
2018-03-15T05:54:58.529Z,5.45
2018-03-15T05:57:25.929Z,5.45
2018-03-15T05:59:53.701Z,5.48
2018-03-15T06:02:22.109Z,5.55
2018-03-15T06:04:49.563Z,5.57
2018-03-15T06:07:16.976Z,5.57
2018-03-15T06:09:44.357Z,5.65
2018-03-15T06:12:11.754Z,5.64
2018-03-15T06:14:39.150Z,5.65
2018-03-15T06:17:06.537Z,5.71
2018-03-15T06:19:33.958Z,5.77
2018-03-15T06:22:01.349Z,5.73
2018-03-15T06:24:28.737Z,5.78
2018-03-15T06:26:56.125Z,5.84
2018-03-15T06:29:23.505Z,5.85
2018-03-15T06:31:50.906Z,5.85
2018-03-15T06:34:18.293Z,5.88
2018-03-15T06:36:45.677Z,5.92
2018-03-15T06:39:13.069Z,5.92
2018-03-15T06:41:40.458Z,6.00
2018-03-15T06:44:07.852Z,6.04
2018-03-15T06:46:35.245Z,6.05
2018-03-15T06:49:02.637Z,6.09
2018-03-15T06:51:30.040Z,6.13
2018-03-15T06:53:57.416Z,6.14
2018-03-15T06:56:24.813Z,6.23
2018-03-15T06:58:52.202Z,6.32
2018-03-15T07:01:19.580Z,6.39
2018-03-15T07:03:46.983Z,6.50
2018-03-15T07:06:14.370Z,6.53
2018-03-15T07:08:42.611Z,6.52
2018-03-15T07:11:09.990Z,6.61
2018-03-15T07:13:37.373Z,6.61
2018-03-15T07:16:04.764Z,6.62
2018-03-15T07:18:32.256Z,6.60
2018-03-15T07:20:59.653Z,6.56
2018-03-15T07:23:27.037Z,6.62
2018-03-15T07:25:54.422Z,6.61
2018-03-15T07:28:21.814Z,6.63
2018-03-15T07:30:49.200Z,6.69
2018-03-15T07:33:16.614Z,6.73
2018-03-15T07:35:44.006Z,6.78
2018-03-15T07:38:11.386Z,6.89
2018-03-15T07:40:38.777Z,6.98
2018-03-15T07:43:06.179Z,7.07
2018-03-15T07:45:33.562Z,7.18
2018-03-15T07:48:00.949Z,7.33
2018-03-15T07:50:28.325Z,7.44
2018-03-15T07:52:55.714Z,7.60
2018-03-15T07:55:23.306Z,7.71
2018-03-15T07:57:50.714Z,7.78
2018-03-15T08:00:18.100Z,7.88
2018-03-15T08:02:45.495Z,8.02
2018-03-15T08:05:12.877Z,8.10
2018-03-15T08:07:40.265Z,8.17
2018-03-15T08:10:07.657Z,8.26
2018-03-15T08:12:35.044Z,8.32
2018-03-15T08:15:02.427Z,8.34
2018-03-15T08:17:29.822Z,8.41
2018-03-15T08:19:57.223Z,8.46
2018-03-15T08:22:25.415Z,8.53
2018-03-15T08:24:54.391Z,8.58
2018-03-15T08:27:23.984Z,8.65
2018-03-15T08:29:54.564Z,8.76
2018-03-15T08:32:21.978Z,8.72
2018-03-15T08:34:50.413Z,8.80
2018-03-15T08:37:17.800Z,8.91
2018-03-15T08:39:45.270Z,9.00
2018-03-15T08:42:12.663Z,9.11
2018-03-15T08:44:41.004Z,9.28
2018-03-15T08:47:08.410Z,9.48
2018-03-15T08:49:35.797Z,9.49
2018-03-15T08:52:03.184Z,9.62
2018-03-15T08:54:30.574Z,9.76
2018-03-15T08:56:57.995Z,9.89
2018-03-15T08:59:25.380Z,10.05
2018-03-15T09:01:52.753Z,10.08
2018-03-15T09:04:20.153Z,10.16
2018-03-15T09:06:47.552Z,10.41
2018-03-15T09:09:14.986Z,10.50
2018-03-15T09:11:42.341Z,10.60
2018-03-15T09:14:09.738Z,10.70
2018-03-15T09:16:37.126Z,10.67
2018-03-15T09:19:04.522Z,10.64
2018-03-15T09:21:31.961Z,10.66
2018-03-15T09:23:59.314Z,10.73
2018-03-15T09:26:26.718Z,10.77
2018-03-15T09:28:54.101Z,10.93
2018-03-15T09:31:21.501Z,11.05
2018-03-15T09:33:48.898Z,11.24
2018-03-15T09:36:16.297Z,11.51
2018-03-15T09:38:43.683Z,11.62
2018-03-15T09:41:11.070Z,11.85
2018-03-15T09:43:38.466Z,12.24
2018-03-15T09:46:05.883Z,12.50
2018-03-15T09:48:33.262Z,12.50
2018-03-15T09:51:00.661Z,12.70
2018-03-15T09:53:28.055Z,13.07
2018-03-15T09:55:55.834Z,13.15
2018-03-15T09:58:23.243Z,13.36
2018-03-15T10:00:51.014Z,13.37
2018-03-15T10:03:18.409Z,13.52
2018-03-15T10:05:45.854Z,13.64
2018-03-15T10:08:13.212Z,13.65
2018-03-15T10:10:40.602Z,13.92
2018-03-15T10:13:08.001Z,14.10
2018-03-15T10:15:35.399Z,14.05
2018-03-15T10:18:02.785Z,14.23
2018-03-15T10:20:30.182Z,14.21
2018-03-15T10:22:57.574Z,14.14
2018-03-15T10:25:26.392Z,14.14
2018-03-15T10:27:52.354Z,14.14
2018-03-15T10:30:19.766Z,14.21
2018-03-15T10:35:47.451Z,14.34
2018-03-15T10:38:14.842Z,14.39
2018-03-15T10:40:42.249Z,14.56
2018-03-15T10:43:09.637Z,14.61
2018-03-15T10:45:37.066Z,14.65
2018-03-15T10:48:04.519Z,14.83
2018-03-15T10:50:31.881Z,15.16
2018-03-15T10:52:59.315Z,15.14
2018-03-15T10:55:26.728Z,15.32
2018-03-15T10:57:54.460Z,15.31
2018-03-15T11:03:27.064Z,14.41
2018-03-15T11:06:01.016Z,14.49
2018-03-15T11:08:35.855Z,14.84
2018-03-15T11:11:03.286Z,14.95
2018-03-15T11:13:30.768Z,15.06
2018-03-15T11:15:58.434Z,15.32
2018-03-15T11:18:25.830Z,15.17
2018-03-15T11:20:53.218Z,15.36
2018-03-15T11:23:20.637Z,15.21
2018-03-15T11:25:48.026Z,14.97
2018-03-15T11:28:15.433Z,14.81
2018-03-15T11:30:42.818Z,14.69
2018-03-15T11:33:10.233Z,14.53
2018-03-15T11:35:37.622Z,14.59
2018-03-15T11:38:05.006Z,14.44
2018-03-15T11:40:32.409Z,14.51
2018-03-15T11:42:59.818Z,14.60
2018-03-15T11:45:27.242Z,14.52
2018-03-15T11:47:54.660Z,14.85
2018-03-15T11:50:22.077Z,14.89
2018-03-15T11:52:49.458Z,14.94
2018-03-15T11:55:16.907Z,15.16
2018-03-15T11:57:44.254Z,15.00
2018-03-15T12:00:11.688Z,15.17
2018-03-15T12:02:39.133Z,15.15
2018-03-15T12:05:06.522Z,15.08
2018-03-15T12:07:33.941Z,14.95
2018-03-15T12:10:01.314Z,14.84
2018-03-15T12:12:28.720Z,14.83
2018-03-15T12:14:56.122Z,14.83
2018-03-15T12:17:23.513Z,14.77
2018-03-15T12:19:50.922Z,14.70
2018-03-15T12:22:18.331Z,14.75
2018-03-15T12:24:46.006Z,14.97
2018-03-15T12:27:13.467Z,15.01
2018-03-15T12:29:40.849Z,14.99
2018-03-15T12:32:08.238Z,14.97
2018-03-15T12:34:35.665Z,14.99
2018-03-15T12:37:03.085Z,14.85
2018-03-15T12:39:30.470Z,14.85
2018-03-15T12:41:57.874Z,14.82
2018-03-15T12:44:25.273Z,14.77
2018-03-15T12:46:52.720Z,14.83
2018-03-15T12:49:20.135Z,14.61
2018-03-15T12:51:47.531Z,14.60
2018-03-15T12:54:14.941Z,14.54
2018-03-15T12:56:42.338Z,14.50
2018-03-15T12:59:09.762Z,14.54
2018-03-15T13:01:37.165Z,14.51
2018-03-15T13:04:04.585Z,14.51
2018-03-15T13:06:31.974Z,14.44
2018-03-15T13:08:59.381Z,14.45
2018-03-15T13:11:26.769Z,14.48
2018-03-15T13:13:54.421Z,14.35
2018-03-15T13:16:21.870Z,14.37
2018-03-15T13:18:49.257Z,14.23
2018-03-15T13:21:16.650Z,14.28
2018-03-15T13:23:44.090Z,14.24
2018-03-15T13:26:11.463Z,14.11
2018-03-15T13:28:38.865Z,13.95
2018-03-15T13:31:06.250Z,13.90
2018-03-15T13:33:33.685Z,13.87
2018-03-15T13:36:01.084Z,13.90
2018-03-15T13:38:28.473Z,13.89
2018-03-15T13:40:55.866Z,14.03
2018-03-15T13:43:23.279Z,13.95
2018-03-15T13:45:50.678Z,14.03
2018-03-15T13:48:18.118Z,14.13
2018-03-15T13:50:45.626Z,14.19
2018-03-15T13:53:13.016Z,14.23
2018-03-15T13:55:40.426Z,14.23
2018-03-15T13:58:07.839Z,14.03
2018-03-15T14:00:35.266Z,13.98
2018-03-15T14:03:02.664Z,14.05
2018-03-15T14:05:30.045Z,13.98
2018-03-15T14:07:57.482Z,13.96
2018-03-15T14:10:24.882Z,14.07
2018-03-15T14:12:52.262Z,14.07
2018-03-15T14:15:19.660Z,13.90
2018-03-15T14:17:47.072Z,13.96
2018-03-15T14:20:14.438Z,14.01
2018-03-15T14:22:41.837Z,14.05
2018-03-15T14:25:09.229Z,14.01
2018-03-15T14:27:36.630Z,14.08
2018-03-15T14:30:04.018Z,14.03
2018-03-15T14:32:31.410Z,13.99
2018-03-15T14:34:58.815Z,14.00
2018-03-15T14:37:26.198Z,13.73
2018-03-15T14:39:53.603Z,13.83
2018-03-15T14:42:21.002Z,13.71
2018-03-15T14:44:48.407Z,13.61
2018-03-15T14:47:15.798Z,13.50
2018-03-15T14:49:43.189Z,13.47
2018-03-15T14:52:10.589Z,13.39
2018-03-15T14:54:37.977Z,13.43
2018-03-15T14:57:05.369Z,13.28
2018-03-15T14:59:32.776Z,13.25
2018-03-15T15:02:00.165Z,13.33
2018-03-15T15:04:27.938Z,13.40
2018-03-15T15:06:55.334Z,13.41
2018-03-15T15:09:22.718Z,13.44
2018-03-15T15:11:50.114Z,13.53
2018-03-15T15:14:17.506Z,13.60
2018-03-15T15:16:44.915Z,13.68
2018-03-15T15:19:12.342Z,13.79
2018-03-15T15:21:39.729Z,13.83
2018-03-15T15:24:07.474Z,13.82
2018-03-15T15:26:34.867Z,13.84
2018-03-15T15:29:02.266Z,13.83
2018-03-15T15:31:29.650Z,13.87
2018-03-15T15:33:57.108Z,13.85
2018-03-15T15:36:24.496Z,13.83
2018-03-15T15:38:51.886Z,13.78
2018-03-15T15:41:19.285Z,13.74
2018-03-15T15:43:46.679Z,13.63
2018-03-15T15:46:14.070Z,13.62
2018-03-15T15:48:41.472Z,13.56
2018-03-15T15:51:08.876Z,13.49
2018-03-15T15:53:36.326Z,13.45
2018-03-15T15:56:03.782Z,13.35
2018-03-15T15:58:31.166Z,13.28
2018-03-15T16:00:58.558Z,13.08
2018-03-15T16:03:25.960Z,13.08
2018-03-15T16:05:53.345Z,13.04
2018-03-15T16:08:20.753Z,13.05
2018-03-15T16:10:48.141Z,12.94
2018-03-15T16:13:15.573Z,12.91
2018-03-15T16:15:43.035Z,12.86
2018-03-15T16:18:10.366Z,12.84
2018-03-15T16:20:37.825Z,12.75
2018-03-15T16:23:05.150Z,12.83
2018-03-15T16:25:32.559Z,12.70
2018-03-15T16:27:59.950Z,12.67
2018-03-15T16:30:27.351Z,12.66
2018-03-15T16:32:54.786Z,12.62
2018-03-15T16:35:22.176Z,12.64
2018-03-15T16:37:49.563Z,12.56
2018-03-15T16:40:16.955Z,12.56
2018-03-15T16:42:44.354Z,12.61
2018-03-15T16:45:11.750Z,12.52
2018-03-15T16:47:39.129Z,12.54
2018-03-15T16:50:06.617Z,12.58
2018-03-15T16:52:34.018Z,12.53
2018-03-15T16:55:01.422Z,12.50
2018-03-15T16:57:28.822Z,12.46
2018-03-15T16:59:56.593Z,12.40
2018-03-15T17:02:23.994Z,12.40
2018-03-15T17:04:51.374Z,12.38
2018-03-15T17:07:18.774Z,12.32
2018-03-15T17:09:46.193Z,12.25
2018-03-15T17:12:13.598Z,12.27
2018-03-15T17:14:40.993Z,12.27
2018-03-15T17:17:08.393Z,12.26
2018-03-15T17:19:35.782Z,12.22
2018-03-15T17:22:03.177Z,12.10
2018-03-15T17:24:30.570Z,12.07
2018-03-15T17:26:57.961Z,12.11
2018-03-15T17:29:25.695Z,11.99
2018-03-15T17:31:53.086Z,12.00
2018-03-15T17:34:20.778Z,11.97
2018-03-15T17:36:48.165Z,12.01
2018-03-15T17:39:15.557Z,11.96
2018-03-15T17:41:42.958Z,11.99
2018-03-15T17:44:10.361Z,11.92
2018-03-15T17:46:37.763Z,11.92
2018-03-15T17:49:05.149Z,11.91
2018-03-15T17:51:32.573Z,11.85
2018-03-15T17:53:59.974Z,11.84
2018-03-15T17:56:28.371Z,11.83
2018-03-15T17:58:55.762Z,11.84
2018-03-15T18:01:23.151Z,11.87
2018-03-15T18:03:50.546Z,11.81
2018-03-15T18:06:17.942Z,11.81
2018-03-15T18:08:46.301Z,11.80
2018-03-15T18:11:13.693Z,11.77
2018-03-15T18:13:41.093Z,11.73
2018-03-15T18:16:08.486Z,11.69
2018-03-15T18:18:35.878Z,11.68
2018-03-15T18:21:03.286Z,11.57
2018-03-15T18:23:30.661Z,11.54
2018-03-15T18:25:58.398Z,11.43
2018-03-15T18:28:25.789Z,11.42
2018-03-15T18:30:54.198Z,11.34
2018-03-15T18:33:21.601Z,11.29
2018-03-15T18:35:48.988Z,11.26
2018-03-15T18:38:16.393Z,11.30
2018-03-15T18:40:43.786Z,11.23
2018-03-15T18:43:11.189Z,11.06
2018-03-15T18:45:38.578Z,10.96
2018-03-15T18:48:05.974Z,10.92
2018-03-15T18:50:33.372Z,10.61
2018-03-15T18:53:01.722Z,10.46
2018-03-15T18:55:29.130Z,10.23
2018-03-15T18:57:56.522Z,9.98
2018-03-15T19:00:23.926Z,9.86
2018-03-15T19:02:51.327Z,9.75
2018-03-15T19:05:18.717Z,9.65
2018-03-15T19:07:46.176Z,9.63
2018-03-15T19:10:13.514Z,9.52
2018-03-15T19:12:40.934Z,9.39
2018-03-15T19:15:08.326Z,9.27
2018-03-15T19:17:35.727Z,9.30
2018-03-15T19:20:03.130Z,9.21
2018-03-15T19:22:30.536Z,9.24
2018-03-15T19:24:57.911Z,9.33
2018-03-15T19:27:25.314Z,9.29
2018-03-15T19:29:52.700Z,9.28
2018-03-15T19:32:21.046Z,9.26
2018-03-15T19:34:48.430Z,9.27
2018-03-15T19:37:15.833Z,9.21
2018-03-15T19:39:43.213Z,9.10
2018-03-15T19:42:10.598Z,9.04
2018-03-15T19:44:37.989Z,9.02
2018-03-15T19:47:05.385Z,8.92
2018-03-15T19:49:32.785Z,9.00
2018-03-15T19:52:00.167Z,9.06
2018-03-15T19:54:27.558Z,9.06
2018-03-15T19:56:54.953Z,9.06
2018-03-15T19:59:22.341Z,9.03
2018-03-15T20:01:49.739Z,8.97
2018-03-15T20:04:17.134Z,8.81
2018-03-15T20:06:44.518Z,8.88
2018-03-15T20:09:11.911Z,8.75
2018-03-15T20:11:39.297Z,8.79
2018-03-15T20:14:06.702Z,8.83
2018-03-15T20:16:34.088Z,8.73
2018-03-15T20:19:06.990Z,8.69
2018-03-15T20:21:34.428Z,8.67
2018-03-15T20:24:07.221Z,8.49
2018-03-15T20:26:34.613Z,8.54
2018-03-15T20:29:01.998Z,8.47
2018-03-15T20:31:29.399Z,8.41
2018-03-15T20:34:03.013Z,8.42
2018-03-15T20:36:30.729Z,8.49
2018-03-15T20:38:58.134Z,8.42
2018-03-15T20:41:27.283Z,8.47
2018-03-15T20:43:54.679Z,8.42
2018-03-15T20:49:24.558Z,8.44
2018-03-15T20:51:51.970Z,8.46
2018-03-15T20:54:19.370Z,8.55
2018-03-15T20:56:46.778Z,8.47
2018-03-15T20:59:14.166Z,8.51
2018-03-15T21:01:41.563Z,8.50
2018-03-15T21:04:08.953Z,8.47
2018-03-15T21:06:36.353Z,8.38
2018-03-15T21:09:03.762Z,8.43
2018-03-15T21:11:31.157Z,8.43
2018-03-15T21:13:58.533Z,8.41
2018-03-15T21:16:25.935Z,8.42
2018-03-15T21:18:53.322Z,8.38
2018-03-15T21:21:20.710Z,8.45
2018-03-15T21:23:48.108Z,8.45
2018-03-15T21:26:15.503Z,8.47
2018-03-15T21:28:42.873Z,8.45
2018-03-15T21:31:10.347Z,8.40
2018-03-15T21:33:37.737Z,8.44
2018-03-15T21:36:05.174Z,8.38
2018-03-15T21:38:32.658Z,8.44
2018-03-15T21:41:00.051Z,8.48
2018-03-15T21:43:27.450Z,8.53
2018-03-15T21:45:54.842Z,8.49
2018-03-15T21:48:22.230Z,8.50
2018-03-15T21:50:49.620Z,8.55
2018-03-15T21:53:17.005Z,8.62
2018-03-15T21:55:44.410Z,8.62
2018-03-15T21:58:11.868Z,8.58
2018-03-15T22:00:39.301Z,8.60
2018-03-15T22:03:06.706Z,8.62
2018-03-15T22:05:34.097Z,8.61
2018-03-15T22:08:01.492Z,8.60
2018-03-15T22:10:28.873Z,8.61
2018-03-15T22:12:56.294Z,8.66
2018-03-15T22:15:23.676Z,8.69
2018-03-15T22:17:51.066Z,8.72
2018-03-15T22:20:18.458Z,8.69
2018-03-15T22:22:45.842Z,8.71
2018-03-15T22:25:13.254Z,8.72
2018-03-15T22:27:40.649Z,8.74
2018-03-15T22:30:08.549Z,8.71
2018-03-15T22:32:35.946Z,8.75
2018-03-15T22:35:03.385Z,8.80
2018-03-15T22:37:30.802Z,8.71
2018-03-15T22:39:58.182Z,8.71
2018-03-15T22:42:25.566Z,8.73
2018-03-15T22:44:52.963Z,8.72
2018-03-15T22:47:20.346Z,8.66
2018-03-15T22:49:47.752Z,8.65
2018-03-15T22:52:15.130Z,8.61
2018-03-15T22:54:42.516Z,8.51
2018-03-15T22:57:09.901Z,8.42
2018-03-15T22:59:37.287Z,8.37
2018-03-15T23:02:04.682Z,8.46
2018-03-15T23:04:32.074Z,8.52
2018-03-15T23:06:59.461Z,8.53
2018-03-15T23:09:26.869Z,8.59
2018-03-15T23:11:54.254Z,8.52
2018-03-15T23:14:21.654Z,8.49
2018-03-15T23:16:49.035Z,8.52
2018-03-15T23:19:16.421Z,8.57
2018-03-15T23:21:43.813Z,8.47
2018-03-15T23:24:11.206Z,8.52
2018-03-15T23:26:38.604Z,8.57
2018-03-15T23:29:05.981Z,8.41
2018-03-15T23:31:33.369Z,8.52
2018-03-15T23:34:00.761Z,8.50
2018-03-15T23:36:28.145Z,8.40
2018-03-15T23:38:55.543Z,8.41
2018-03-15T23:41:22.923Z,8.42
2018-03-15T23:43:50.304Z,8.31
2018-03-15T23:46:17.701Z,8.29
2018-03-15T23:48:45.077Z,8.33
2018-03-15T23:51:12.473Z,8.36
2018-03-15T23:53:39.857Z,8.38
2018-03-15T23:56:07.245Z,8.36
2018-03-15T23:58:34.637Z,8.34
